Time,TemperatureF,DewpointF,PressureIn,WindDirection,WindDirectionDegrees,WindSpeedMPH,WindSpeedGustMPH,Humidity,HourlyPrecipIn,Conditions,Clouds,dailyrainin,SoftwareType,DateUTC
2013-03-26 00:05:00,34.3,27.2,30.06,WNW,283,0.0,6.0,75,0.00,,,0.00,WUHU216WMR968SP,2013-03-26 04:05:00,
2013-03-26 00:10:00,34.3,27.2,30.06,WNW,296,4.6,8.7,75,0.00,,,0.00,WUHU216WMR968SP,2013-03-26 04:10:00,
2013-03-26 00:15:00,34.2,27.1,30.06,WNW,301,5.4,9.5,75,0.00,,,0.00,WUHU216WMR968SP,2013-03-26 04:15:00,
2013-03-26 00:20:00,34.2,27.5,30.06,WNW,297,3.3,9.5,76,0.00,,,0.00,WUHU216WMR968SP,2013-03-26 04:20:00,
2013-03-26 00:25:00,34.0,27.3,30.06,West,272,4.1,7.4,76,0.00,,,0.00,WUHU216WMR968SP,2013-03-26 04:25:00,
2013-03-26 00:30:00,34.0,27.6,30.06,WSW,246,0.0,6.0,77,0.00,,,0.00,WUHU216WMR968SP,2013-03-26 04:30:00,
2013-03-26 00:35:00,33.8,27.4,30.06,West,278,0.0,6.0,77,0.00,,,0.00,WUHU216WMR968SP,2013-03-26 04:35:00,
2013-03-26 00:40:00,33.6,27.5,30.06,WSW,254,0.0,8.1,78,0.00,,,0.00,WUHU216WMR968SP,2013-03-26 04:40:00,
2013-03-26 00:45:00,33.6,27.5,30.06,SW,217,0.0,8.1,78,0.00,,,0.00,WUHU216WMR968SP,2013-03-26 04:45:00,
2013-03-26 00:50:00,33.6,27.8,30.06,NW,306,0.0,5.4,79,0.00,,,0.00,WUHU216WMR968SP,2013-03-26 04:50:00,
2013-03-26 00:55:00,33.6,27.8,30.06,NW,308,3.3,6.0,79,0.00,,,0.00,WUHU216WMR968SP,2013-03-26 04:55:00,
2013-03-26 01:00:00,33.8,27.7,30.06,NW,305,4.6,9.5,78,0.00,,,0.00,WUHU216WMR968SP,2013-03-26 05:00:00,
2013-03-26 01:05:00,34.0,27.9,30.06,NNW,328,3.3,9.5,78,0.00,,,0.00,WUHU216WMR968SP,2013-03-26 05:05:00,
2013-03-26 01:10:00,34.0,27.6,30.06,NW,311,0.0,8.1,77,0.00,,,0.00,WUHU216WMR968SP,2013-03-26 05:10:00,
2013-03-26 01:15:00,34.0,27.6,30.06,WNW,282,3.3,8.1,77,0.00,,,0.00,WUHU216WMR968SP,2013-03-26 05:15:00,
2013-03-26 01:20:00,34.2,27.5,30.06,WNW,301,4.1,9.5,76,0.00,,,0.00,WUHU216WMR968SP,2013-03-26 05:20:00,
2013-03-26 01:25:00,34.3,27.6,30.06,WNW,292,4.6,9.5,76,0.00,,,0.00,WUHU216WMR968SP,2013-03-26 05:25:00,
2013-03-26 01:30:00,34.3,27.2,30.06,WNW,302,4.6,8.1,75,0.00,,,0.00,WUHU216WMR968SP,2013-03-26 05:30:00,
2013-03-26 01:35:00,34.3,27.2,30.06,WNW,301,0.0,8.1,75,0.00,,,0.00,WUHU216WMR968SP,2013-03-26 05:35:00,
2013-03-26 01:40:00,34.3,27.2,30.06,WNW,285,4.6,8.1,75,0.00,,,0.00,WUHU216WMR968SP,2013-03-26 05:40:00,
2013-03-26 01:45:00,34.3,26.9,30.06,NW,306,0.0,8.7,74,0.00,,,0.00,WUHU216WMR968SP,2013-03-26 05:45:00,
2013-03-26 01:50:00,34.3,26.9,30.06,NW,308,4.1,8.7,74,0.00,,,0.00,WUHU216WMR968SP,2013-03-26 05:50:00,
2013-03-26 01:55:00,34.3,26.6,30.06,NNW,328,4.6,6.0,73,0.00,,,0.00,WUHU216WMR968SP,2013-03-26 05:55:00,
2013-03-26 02:00:00,34.5,26.8,30.06,NW,315,3.3,6.0,73,0.00,,,0.00,WUHU216WMR968SP,2013-03-26 06:00:00,
2013-03-26 02:05:00,34.5,26.8,30.06,WNW,302,3.3,7.4,73,0.00,,,0.00,WUHU216WMR968SP,2013-03-26 06:05:00,
2013-03-26 02:10:00,34.5,26.5,30.06,WNW,299,0.0,7.4,72,0.00,,,0.00,WUHU216WMR968SP,2013-03-26 06:10:00,
2013-03-26 02:15:00,34.5,26.8,30.06,WNW,293,3.3,7.4,73,0.00,,,0.00,WUHU216WMR968SP,2013-03-26 06:15:00,
2013-03-26 02:20:00,34.5,26.8,30.06,WNW,299,3.3,7.4,73,0.00,,,0.00,WUHU216WMR968SP,2013-03-26 06:20:00,
2013-03-26 02:25:00,34.7,27.0,30.06,West,281,3.3,6.0,73,0.00,,,0.00,WUHU216WMR968SP,2013-03-26 06:25:00,
2013-03-26 02:30:00,34.5,26.8,30.06,NNW,333,0.0,6.0,73,0.00,,,0.00,WUHU216WMR968SP,2013-03-26 06:30:00,
2013-03-26 02:35:00,34.5,26.8,30.06,WSW,254,4.6,8.7,73,0.00,,,0.00,WUHU216WMR968SP,2013-03-26 06:35:00,
2013-03-26 02:40:00,34.5,26.8,30.06,NW,306,5.4,8.7,73,0.00,,,0.00,WUHU216WMR968SP,2013-03-26 06:40:00,
2013-03-26 02:45:00,34.3,26.6,30.06,NW,304,4.1,6.0,73,0.00,,,0.00,WUHU216WMR968SP,2013-03-26 06:45:00,
2013-03-26 02:50:00,34.3,26.6,30.06,NW,322,4.1,6.0,73,0.00,,,0.00,WUHU216WMR968SP,2013-03-26 06:50:00,
2013-03-26 02:55:00,34.5,26.8,30.06,NW,323,3.3,6.0,73,0.00,,,0.00,WUHU216WMR968SP,2013-03-26 06:55:00,
2013-03-26 03:00:00,34.5,26.8,30.06,West,281,3.3,7.4,73,0.00,,,0.00,WUHU216WMR968SP,2013-03-26 07:00:00,
2013-03-26 03:06:00,34.5,26.8,30.06,West,268,3.3,7.4,73,0.00,,,0.00,WUHU216WMR968SP,2013-03-26 07:06:00,
2013-03-26 03:11:00,34.5,26.8,30.06,NW,324,4.6,6.0,73,0.00,,,0.00,WUHU216WMR968SP,2013-03-26 07:11:00,
2013-03-26 03:16:00,34.5,26.8,30.06,WNW,295,0.0,6.0,73,0.00,,,0.00,WUHU216WMR968SP,2013-03-26 07:16:00,
2013-03-26 03:21:00,34.5,26.8,30.06,WSW,247,3.3,6.0,73,0.00,,,0.00,WUHU216WMR968SP,2013-03-26 07:21:00,
2013-03-26 03:26:00,34.3,26.3,30.06,WNW,289,4.1,6.0,72,0.00,,,0.00,WUHU216WMR968SP,2013-03-26 07:26:00,
2013-03-26 03:31:00,34.2,26.2,30.06,WNW,303,0.0,6.8,72,0.00,,,0.00,WUHU216WMR968SP,2013-03-26 07:31:00,
2013-03-26 03:36:00,34.0,26.0,30.06,West,267,3.3,7.4,72,0.00,,,0.00,WUHU216WMR968SP,2013-03-26 07:36:00,
2013-03-26 03:41:00,34.0,25.6,30.06,NW,305,4.6,7.4,71,0.00,,,0.00,WUHU216WMR968SP,2013-03-26 07:41:00,
2013-03-26 03:46:00,34.2,25.8,30.06,NNW,328,0.0,7.4,71,0.00,,,0.00,WUHU216WMR968SP,2013-03-26 07:46:00,
2013-03-26 03:51:00,34.0,25.6,30.06,NNW,330,0.0,6.0,71,0.00,,,0.00,WUHU216WMR968SP,2013-03-26 07:51:00,
2013-03-26 03:56:00,34.0,25.6,30.06,WNW,300,4.1,8.1,71,0.00,,,0.00,WUHU216WMR968SP,2013-03-26 07:56:00,
2013-03-26 04:01:00,34.0,25.3,30.06,North,5,6.8,8.7,70,0.00,,,0.00,WUHU216WMR968SP,2013-03-26 08:01:00,
2013-03-26 04:06:00,34.2,25.5,30.06,NW,305,0.0,8.7,70,0.00,,,0.00,WUHU216WMR968SP,2013-03-26 08:06:00,
2013-03-26 04:12:00,34.3,25.6,30.06,SW,233,0.0,7.4,70,0.00,,,0.00,WUHU216WMR968SP,2013-03-26 08:12:00,
2013-03-26 04:17:00,34.3,25.6,30.06,NW,323,3.3,7.4,70,0.00,,,0.00,WUHU216WMR968SP,2013-03-26 08:17:00,
2013-03-26 04:22:00,34.3,25.6,30.06,NW,324,3.3,5.4,70,0.00,,,0.00,WUHU216WMR968SP,2013-03-26 08:22:00,
2013-03-26 04:27:00,34.3,25.6,30.06,WNW,300,4.1,5.4,70,0.00,,,0.00,WUHU216WMR968SP,2013-03-26 08:27:00,
2013-03-26 04:32:00,34.3,25.6,30.06,NW,321,4.1,5.4,70,0.00,,,0.00,WUHU216WMR968SP,2013-03-26 08:32:00,
2013-03-26 04:37:00,34.3,25.6,30.06,NNW,342,3.3,6.0,70,0.00,,,0.00,WUHU216WMR968SP,2013-03-26 08:37:00,
2013-03-26 04:42:00,34.3,25.6,30.06,NNW,329,4.6,6.0,70,0.00,,,0.00,WUHU216WMR968SP,2013-03-26 08:42:00,
2013-03-26 04:47:00,34.3,25.6,30.06,NW,314,0.0,6.0,70,0.00,,,0.00,WUHU216WMR968SP,2013-03-26 08:47:00,
2013-03-26 04:52:00,34.3,25.6,30.06,NNW,340,0.0,4.6,70,0.00,,,0.00,WUHU216WMR968SP,2013-03-26 08:52:00,
2013-03-26 04:57:00,34.2,25.5,30.06,NNW,340,0.0,4.1,70,0.00,,,0.00,WUHU216WMR968SP,2013-03-26 08:57:00,
2013-03-26 05:02:00,34.0,25.3,30.06,NW,324,0.0,5.4,70,0.00,,,0.00,WUHU216WMR968SP,2013-03-26 09:02:00,
2013-03-26 05:07:00,34.0,25.3,30.06,WNW,296,3.3,6.0,70,0.00,,,0.00,WUHU216WMR968SP,2013-03-26 09:07:00,
2013-03-26 05:12:00,34.0,25.3,30.06,NNW,327,4.1,6.0,70,0.00,,,0.00,WUHU216WMR968SP,2013-03-26 09:12:00,
2013-03-26 05:17:00,34.0,25.3,30.06,NW,304,3.3,6.0,70,0.00,,,0.00,WUHU216WMR968SP,2013-03-26 09:17:00,
2013-03-26 05:22:00,34.2,25.5,30.06,NW,321,3.3,8.1,70,0.00,,,0.00,WUHU216WMR968SP,2013-03-26 09:22:00,
2013-03-26 05:27:00,34.0,25.3,30.06,NNW,341,4.1,8.1,70,0.00,,,0.00,WUHU216WMR968SP,2013-03-26 09:27:00,
2013-03-26 05:32:00,34.0,25.3,30.06,NW,308,4.1,6.0,70,0.00,,,0.00,WUHU216WMR968SP,2013-03-26 09:32:00,
2013-03-26 05:37:00,33.8,25.1,30.06,NNW,336,3.3,6.0,70,0.00,,,0.00,WUHU216WMR968SP,2013-03-26 09:37:00,
2013-03-26 05:42:00,33.8,25.1,30.06,NW,312,3.3,6.0,70,0.00,,,0.00,WUHU216WMR968SP,2013-03-26 09:42:00,
2013-03-26 05:47:00,33.8,25.5,30.06,NW,316,0.0,5.4,71,0.00,,,0.00,WUHU216WMR968SP,2013-03-26 09:47:00,
2013-03-26 05:52:00,33.8,25.5,30.06,WNW,298,0.0,5.4,71,0.00,,,0.00,WUHU216WMR968SP,2013-03-26 09:52:00,
2013-03-26 05:57:00,33.6,25.3,30.06,WNW,303,0.0,4.6,71,0.00,,,0.00,WUHU216WMR968SP,2013-03-26 09:57:00,
2013-03-26 06:02:00,33.6,25.3,30.06,NNW,339,0.0,5.4,71,0.00,,,0.00,WUHU216WMR968SP,2013-03-26 10:02:00,
2013-03-26 06:07:00,33.8,25.5,30.06,NW,304,0.0,5.4,71,0.00,,,0.00,WUHU216WMR968SP,2013-03-26 10:07:00,
2013-03-26 06:12:00,34.0,25.6,30.06,West,272,3.3,5.4,71,0.00,,,0.00,WUHU216WMR968SP,2013-03-26 10:12:00,
2013-03-26 06:17:00,34.0,25.3,30.06,NW,312,0.0,6.0,70,0.00,,,0.00,WUHU216WMR968SP,2013-03-26 10:17:00,
2013-03-26 06:22:00,34.0,25.3,30.06,NW,304,0.0,6.0,70,0.00,,,0.00,WUHU216WMR968SP,2013-03-26 10:22:00,
2013-03-26 06:27:00,34.0,25.3,30.06,NNW,330,0.0,8.1,70,0.00,,,0.00,WUHU216WMR968SP,2013-03-26 10:27:00,
2013-03-26 06:32:00,33.8,25.1,30.06,NNW,338,3.3,8.1,70,0.00,,,0.00,WUHU216WMR968SP,2013-03-26 10:32:00,
2013-03-26 06:38:00,33.8,25.1,30.06,NNW,330,0.0,6.0,70,0.00,,,0.00,WUHU216WMR968SP,2013-03-26 10:38:00,
2013-03-26 06:43:00,33.6,24.9,30.06,NW,308,5.4,7.4,70,0.00,,,0.00,WUHU216WMR968SP,2013-03-26 10:43:00,
2013-03-26 06:48:00,33.8,25.1,30.06,NW,322,3.3,7.4,70,0.00,,,0.00,WUHU216WMR968SP,2013-03-26 10:48:00,
2013-03-26 06:53:00,33.8,25.1,30.06,NNW,337,4.1,7.4,70,0.00,,,0.00,WUHU216WMR968SP,2013-03-26 10:53:00,
2013-03-26 06:58:00,33.8,25.1,30.06,NW,315,4.1,6.0,70,0.00,,,0.00,WUHU216WMR968SP,2013-03-26 10:58:00,
2013-03-26 07:03:00,34.0,25.3,30.06,NW,313,0.0,6.0,70,0.00,,,0.00,WUHU216WMR968SP,2013-03-26 11:03:00,
2013-03-26 07:08:00,34.0,25.3,30.09,NW,318,4.1,6.0,70,0.00,,,0.00,WUHU216WMR968SP,2013-03-26 11:08:00,
2013-03-26 07:13:00,34.0,25.3,30.09,WNW,294,0.0,6.0,70,0.00,,,0.00,WUHU216WMR968SP,2013-03-26 11:13:00,
2013-03-26 07:18:00,34.0,25.3,30.09,NW,314,3.3,5.4,70,0.00,,,0.00,WUHU216WMR968SP,2013-03-26 11:18:00,
2013-03-26 07:23:00,34.0,25.3,30.09,NNW,329,6.8,8.7,70,0.00,,,0.00,WUHU216WMR968SP,2013-03-26 11:23:00,
2013-03-26 07:28:00,34.2,25.5,30.09,NW,308,3.3,8.7,70,0.00,,,0.00,WUHU216WMR968SP,2013-03-26 11:28:00,
2013-03-26 07:33:00,34.3,25.6,30.09,North,353,0.0,6.8,70,0.00,,,0.00,WUHU216WMR968SP,2013-03-26 11:33:00,
2013-03-26 07:38:00,34.3,25.6,30.09,NW,311,4.1,6.0,70,0.00,,,0.00,WUHU216WMR968SP,2013-03-26 11:38:00,
2013-03-26 07:43:00,34.3,25.3,30.09,NW,316,4.6,7.4,69,0.00,,,0.00,WUHU216WMR968SP,2013-03-26 11:43:00,
2013-03-26 07:48:00,34.2,25.2,30.09,North,9,0.0,7.4,69,0.00,,,0.00,WUHU216WMR968SP,2013-03-26 11:48:00,
2013-03-26 07:53:00,34.2,25.2,30.09,NW,315,3.3,5.4,69,0.00,,,0.00,WUHU216WMR968SP,2013-03-26 11:53:00,
2013-03-26 07:58:00,34.2,25.5,30.09,NNW,342,3.3,4.6,70,0.00,,,0.00,WUHU216WMR968SP,2013-03-26 11:58:00,
2013-03-26 08:03:00,34.2,25.2,30.09,West,268,4.6,6.0,69,0.00,,,0.00,WUHU216WMR968SP,2013-03-26 12:03:00,
2013-03-26 08:08:00,34.3,25.6,30.09,North,0,0.0,6.0,70,0.00,,,0.00,WUHU216WMR968SP,2013-03-26 12:08:00,
2013-03-26 08:13:00,34.5,25.8,30.09,NW,316,3.3,5.4,70,0.00,,,0.00,WUHU216WMR968SP,2013-03-26 12:13:00,
2013-03-26 08:18:00,34.5,25.8,30.09,WNW,286,0.0,5.4,70,0.00,,,0.00,WUHU216WMR968SP,2013-03-26 12:18:00,
2013-03-26 08:23:00,34.5,25.8,30.12,NW,317,0.0,5.4,70,0.00,,,0.00,WUHU216WMR968SP,2013-03-26 12:23:00,
2013-03-26 08:28:00,34.7,26.0,30.12,West,279,3.3,7.4,70,0.00,,,0.00,WUHU216WMR968SP,2013-03-26 12:28:00,
2013-03-26 08:33:00,34.7,26.0,30.12,NW,310,4.1,8.7,70,0.00,,,0.00,WUHU216WMR968SP,2013-03-26 12:33:00,
2013-03-26 08:38:00,34.7,26.3,30.12,NW,314,0.0,8.7,71,0.00,,,0.00,WUHU216WMR968SP,2013-03-26 12:38:00,
2013-03-26 08:43:00,34.9,26.5,30.12,NNW,328,4.1,8.1,71,0.00,,,0.00,WUHU216WMR968SP,2013-03-26 12:43:00,
2013-03-26 08:48:00,34.9,26.5,30.12,NW,321,4.1,6.0,71,0.00,,,0.00,WUHU216WMR968SP,2013-03-26 12:48:00,
2013-03-26 08:53:00,34.9,26.5,30.12,NNW,335,3.3,6.0,71,0.00,,,0.00,WUHU216WMR968SP,2013-03-26 12:53:00,
2013-03-26 08:58:00,34.9,26.5,30.12,NW,310,0.0,4.6,71,0.00,,,0.00,WUHU216WMR968SP,2013-03-26 12:58:00,
2013-03-26 09:03:00,35.1,26.7,30.12,North,6,3.3,5.4,71,0.00,,,0.00,WUHU216WMR968SP,2013-03-26 13:03:00,
2013-03-26 09:08:00,35.1,26.7,30.12,North,353,4.1,5.4,71,0.00,,,0.00,WUHU216WMR968SP,2013-03-26 13:08:00,
2013-03-26 09:13:00,35.1,26.7,30.12,NW,311,0.0,5.4,71,0.00,,,0.00,WUHU216WMR968SP,2013-03-26 13:13:00,
2013-03-26 09:18:00,35.2,26.8,30.12,NNW,330,0.0,5.4,71,0.00,,,0.00,WUHU216WMR968SP,2013-03-26 13:18:00,
2013-03-26 09:23:00,35.2,27.1,30.15,NW,326,0.0,5.4,72,0.00,,,0.00,WUHU216WMR968SP,2013-03-26 13:23:00,
2013-03-26 09:28:00,35.4,27.3,30.15,WNW,301,0.0,4.6,72,0.00,,,0.00,WUHU216WMR968SP,2013-03-26 13:28:00,
2013-03-26 09:34:00,35.6,27.2,30.15,NW,304,4.6,6.0,71,0.00,,,0.00,WUHU216WMR968SP,2013-03-26 13:34:00,
2013-03-26 09:39:00,35.8,27.4,30.15,West,271,4.1,6.0,71,0.00,,,0.00,WUHU216WMR968SP,2013-03-26 13:39:00,
2013-03-26 09:44:00,35.8,27.4,30.15,NNW,341,4.1,6.0,71,0.00,,,0.00,WUHU216WMR968SP,2013-03-26 13:44:00,
2013-03-26 09:49:00,35.8,27.4,30.15,NW,315,6.0,8.7,71,0.00,,,0.00,WUHU216WMR968SP,2013-03-26 13:49:00,
2013-03-26 09:54:00,36.0,27.6,30.15,WNW,285,0.0,8.7,71,0.00,,,0.00,WUHU216WMR968SP,2013-03-26 13:54:00,
2013-03-26 09:59:00,36.1,28.0,30.15,SSW,200,0.0,6.0,72,0.00,,,0.00,WUHU216WMR968SP,2013-03-26 13:59:00,
2013-03-26 10:04:00,36.1,28.0,30.15,WNW,303,3.3,5.4,72,0.00,,,0.00,WUHU216WMR968SP,2013-03-26 14:04:00,
2013-03-26 10:09:00,36.3,28.5,30.15,North,0,0.0,5.4,73,0.00,,,0.00,WUHU216WMR968SP,2013-03-26 14:09:00,
2013-03-26 10:14:00,36.7,28.9,30.15,NW,311,0.0,4.6,73,0.00,,,0.00,WUHU216WMR968SP,2013-03-26 14:14:00,
2013-03-26 10:19:00,36.9,28.8,30.15,NW,319,0.0,5.4,72,0.00,,,0.00,WUHU216WMR968SP,2013-03-26 14:19:00,
2013-03-26 10:24:00,36.9,28.8,30.15,NNW,329,0.0,5.4,72,0.00,,,0.00,WUHU216WMR968SP,2013-03-26 14:24:00,
2013-03-26 10:29:00,36.9,28.4,30.15,North,357,4.6,6.0,71,0.00,,,0.00,WUHU216WMR968SP,2013-03-26 14:29:00,
2013-03-26 10:34:00,36.9,28.4,30.15,WNW,294,3.3,6.0,71,0.00,,,0.00,WUHU216WMR968SP,2013-03-26 14:34:00,
2013-03-26 10:39:00,37.4,28.9,30.15,WNW,297,4.1,6.0,71,0.00,,,0.00,WUHU216WMR968SP,2013-03-26 14:39:00,
2013-03-26 10:44:00,37.9,29.4,30.15,NW,325,0.0,6.0,71,0.00,,,0.00,WUHU216WMR968SP,2013-03-26 14:44:00,
2013-03-26 10:49:00,38.3,29.4,30.15,NW,314,3.3,5.4,70,0.00,,,0.00,WUHU216WMR968SP,2013-03-26 14:49:00,
2013-03-26 10:54:00,38.8,29.9,30.18,WNW,300,3.3,6.0,70,0.00,,,0.00,WUHU216WMR968SP,2013-03-26 14:54:00,
2013-03-26 10:59:00,39.4,29.8,30.18,WSW,243,4.1,8.1,68,0.00,,,0.00,WUHU216WMR968SP,2013-03-26 14:59:00,
2013-03-26 11:04:00,38.7,28.4,30.18,WSW,253,0.0,9.5,66,0.00,,,0.00,WUHU216WMR968SP,2013-03-26 15:04:00,
2013-03-26 11:09:00,38.7,28.4,30.18,WNW,287,0.0,9.5,66,0.00,,,0.00,WUHU216WMR968SP,2013-03-26 15:09:00,
2013-03-26 11:14:00,38.5,28.2,30.18,NW,326,0.0,6.0,66,0.00,,,0.00,WUHU216WMR968SP,2013-03-26 15:14:00,
2013-03-26 11:19:00,38.3,27.6,30.18,North,6,4.1,6.0,65,0.00,,,0.00,WUHU216WMR968SP,2013-03-26 15:19:00,
2013-03-26 11:24:00,38.1,27.1,30.15,North,350,0.0,5.4,64,0.00,,,0.00,WUHU216WMR968SP,2013-03-26 15:24:00,
2013-03-26 11:29:00,37.9,26.5,30.15,North,0,0.0,6.0,63,0.00,,,0.00,WUHU216WMR968SP,2013-03-26 15:29:00,
2013-03-26 11:34:00,38.1,26.3,30.15,North,1,0.0,6.0,62,0.00,,,0.00,WUHU216WMR968SP,2013-03-26 15:34:00,
2013-03-26 11:39:00,38.3,26.1,30.18,East,87,4.1,6.0,61,0.00,,,0.00,WUHU216WMR968SP,2013-03-26 15:39:00,
2013-03-26 11:44:00,38.7,26.5,30.18,NNW,346,0.0,6.0,61,0.00,,,0.00,WUHU216WMR968SP,2013-03-26 15:44:00,
2013-03-26 11:49:00,39.0,26.8,30.18,West,273,5.4,7.4,61,0.00,,,0.00,WUHU216WMR968SP,2013-03-26 15:49:00,
2013-03-26 11:54:00,39.6,26.9,30.18,NNW,345,4.6,7.4,60,0.00,,,0.00,WUHU216WMR968SP,2013-03-26 15:54:00,
2013-03-26 11:59:00,39.9,26.8,30.18,NNW,327,4.6,8.1,59,0.00,,,0.00,WUHU216WMR968SP,2013-03-26 15:59:00,
2013-03-26 12:04:00,40.6,27.4,30.18,WNW,288,5.4,8.1,59,0.00,,,0.00,WUHU216WMR968SP,2013-03-26 16:04:00,
2013-03-26 12:09:00,40.5,27.3,30.18,NW,308,4.6,8.1,59,0.00,,,0.00,WUHU216WMR968SP,2013-03-26 16:09:00,
2013-03-26 12:14:00,39.9,26.4,30.18,WNW,284,3.3,8.1,58,0.00,,,0.00,WUHU216WMR968SP,2013-03-26 16:14:00,
2013-03-26 12:19:00,39.6,26.1,30.18,NNW,331,0.0,8.1,58,0.00,,,0.00,WUHU216WMR968SP,2013-03-26 16:19:00,
2013-03-26 12:24:00,39.6,26.1,30.18,NW,307,0.0,6.0,58,0.00,,,0.00,WUHU216WMR968SP,2013-03-26 16:24:00,
2013-03-26 12:29:00,39.4,25.9,30.18,North,9,0.0,6.0,58,0.00,,,0.00,WUHU216WMR968SP,2013-03-26 16:29:00,
2013-03-26 12:34:00,39.2,25.3,30.18,NNE,13,4.6,7.4,57,0.00,,,0.00,WUHU216WMR968SP,2013-03-26 16:34:00,
2013-03-26 12:39:00,39.0,25.1,30.18,NNW,333,5.4,8.1,57,0.00,,,0.00,WUHU216WMR968SP,2013-03-26 16:39:00,
2013-03-26 12:45:00,38.8,24.9,30.18,NW,309,0.0,8.1,57,0.00,,,0.00,WUHU216WMR968SP,2013-03-26 16:45:00,
2013-03-26 12:50:00,38.7,24.8,30.21,NW,305,6.0,8.1,57,0.00,,,0.00,WUHU216WMR968SP,2013-03-26 16:50:00,
2013-03-26 12:55:00,38.3,24.9,30.21,NW,305,4.1,8.7,58,0.00,,,0.00,WUHU216WMR968SP,2013-03-26 16:55:00,
2013-03-26 13:00:00,38.3,24.9,30.21,NNW,337,3.3,8.7,58,0.00,,,0.00,WUHU216WMR968SP,2013-03-26 17:00:00,
2013-03-26 13:05:00,38.5,25.0,30.21,North,11,5.4,8.1,58,0.00,,,0.00,WUHU216WMR968SP,2013-03-26 17:05:00,
2013-03-26 13:10:00,38.7,25.2,30.21,North,11,3.3,8.1,58,0.00,,,0.00,WUHU216WMR968SP,2013-03-26 17:10:00,
2013-03-26 13:15:00,38.8,25.3,30.21,North,357,0.0,6.0,58,0.00,,,0.00,WUHU216WMR968SP,2013-03-26 17:15:00,
2013-03-26 13:20:00,38.8,25.3,30.21,NNW,343,4.1,8.1,58,0.00,,,0.00,WUHU216WMR968SP,2013-03-26 17:20:00,
2013-03-26 13:25:00,39.0,25.5,30.21,WNW,283,4.1,8.1,58,0.00,,,0.00,WUHU216WMR968SP,2013-03-26 17:25:00,
2013-03-26 13:30:00,39.2,25.7,30.21,North,357,3.3,8.1,58,0.00,,,0.00,WUHU216WMR968SP,2013-03-26 17:30:00,
2013-03-26 13:35:00,39.6,26.1,30.21,WNW,292,0.0,8.1,58,0.00,,,0.00,WUHU216WMR968SP,2013-03-26 17:35:00,
2013-03-26 13:40:00,39.9,25.9,30.21,NW,324,6.0,8.1,57,0.00,,,0.00,WUHU216WMR968SP,2013-03-26 17:40:00,
2013-03-26 13:45:00,40.3,25.9,30.21,NW,325,4.1,8.1,56,0.00,,,0.00,WUHU216WMR968SP,2013-03-26 17:45:00,
2013-03-26 13:50:00,40.6,25.7,30.21,NNW,345,3.3,7.4,55,0.00,,,0.00,WUHU216WMR968SP,2013-03-26 17:50:00,
2013-03-26 13:55:00,40.8,25.9,30.21,NNW,340,4.6,6.0,55,0.00,,,0.00,WUHU216WMR968SP,2013-03-26 17:55:00,
2013-03-26 14:00:00,41.0,25.6,30.21,NNW,336,4.1,6.0,54,0.00,,,0.00,WUHU216WMR968SP,2013-03-26 18:00:00,
2013-03-26 14:05:00,40.8,25.4,30.21,NNW,343,4.1,6.0,54,0.00,,,0.00,WUHU216WMR968SP,2013-03-26 18:05:00,
2013-03-26 14:10:00,39.9,24.6,30.21,NW,305,4.6,8.7,54,0.00,,,0.00,WUHU216WMR968SP,2013-03-26 18:10:00,
2013-03-26 14:15:00,39.2,23.9,30.21,North,353,5.4,9.5,54,0.00,,,0.00,WUHU216WMR968SP,2013-03-26 18:15:00,
2013-03-26 14:20:00,38.8,24.0,30.21,NW,324,5.4,9.5,55,0.00,,,0.00,WUHU216WMR968SP,2013-03-26 18:20:00,
2013-03-26 14:25:00,38.8,24.0,30.21,North,357,0.0,8.7,55,0.00,,,0.00,WUHU216WMR968SP,2013-03-26 18:25:00,
2013-03-26 14:30:00,39.0,24.2,30.21,WNW,303,3.3,9.5,55,0.00,,,0.00,WUHU216WMR968SP,2013-03-26 18:30:00,
2013-03-26 14:35:00,39.2,24.4,30.21,WNW,284,4.1,9.5,55,0.00,,,0.00,WUHU216WMR968SP,2013-03-26 18:35:00,
2013-03-26 14:40:00,39.6,24.8,30.21,North,9,3.3,6.0,55,0.00,,,0.00,WUHU216WMR968SP,2013-03-26 18:40:00,
2013-03-26 14:45:00,40.1,25.2,30.21,NW,316,4.1,6.0,55,0.00,,,0.00,WUHU216WMR968SP,2013-03-26 18:45:00,
2013-03-26 14:50:00,40.5,25.6,30.21,WNW,303,4.1,6.0,55,0.00,,,0.00,WUHU216WMR968SP,2013-03-26 18:50:00,
2013-03-26 14:55:00,40.6,25.7,30.21,WNW,288,5.4,8.7,55,0.00,,,0.00,WUHU216WMR968SP,2013-03-26 18:55:00,
2013-03-26 15:00:00,41.2,26.3,30.21,WNW,302,5.4,9.5,55,0.00,,,0.00,WUHU216WMR968SP,2013-03-26 19:00:00,
2013-03-26 15:05:00,41.5,26.5,30.21,West,281,4.6,9.5,55,0.00,,,0.00,WUHU216WMR968SP,2013-03-26 19:05:00,
2013-03-26 15:10:00,42.1,26.7,30.21,NW,306,4.1,9.5,54,0.00,,,0.00,WUHU216WMR968SP,2013-03-26 19:10:00,
2013-03-26 15:15:00,42.6,27.6,30.21,WNW,285,6.0,8.1,55,0.00,,,0.00,WUHU216WMR968SP,2013-03-26 19:15:00,
2013-03-26 15:20:00,42.4,26.9,30.21,NNW,332,3.3,8.7,54,0.00,,,0.00,WUHU216WMR968SP,2013-03-26 19:20:00,
2013-03-26 15:25:00,42.6,27.1,30.21,West,259,0.0,8.7,54,0.00,,,0.00,WUHU216WMR968SP,2013-03-26 19:25:00,
2013-03-26 15:30:00,42.3,26.4,30.21,NNW,331,6.0,8.7,53,0.00,,,0.00,WUHU216WMR968SP,2013-03-26 19:30:00,
2013-03-26 15:35:00,42.3,26.4,30.21,WNW,287,5.4,8.7,53,0.00,,,0.00,WUHU216WMR968SP,2013-03-26 19:35:00,
2013-03-26 15:40:00,41.7,25.8,30.21,WNW,293,6.0,8.7,53,0.00,,,0.00,WUHU216WMR968SP,2013-03-26 19:40:00,
2013-03-26 15:45:00,41.5,25.6,30.21,NNW,332,3.3,8.7,53,0.00,,,0.00,WUHU216WMR968SP,2013-03-26 19:45:00,
2013-03-26 15:51:00,42.3,26.4,30.21,NW,310,4.1,6.0,53,0.00,,,0.00,WUHU216WMR968SP,2013-03-26 19:51:00,
2013-03-26 15:56:00,42.4,26.0,30.21,NNW,335,5.4,6.8,52,0.00,,,0.00,WUHU216WMR968SP,2013-03-26 19:56:00,
2013-03-26 16:01:00,43.0,26.6,30.21,WNW,303,3.3,7.4,52,0.00,,,0.00,WUHU216WMR968SP,2013-03-26 20:01:00,
2013-03-26 16:06:00,43.3,26.8,30.21,West,277,4.6,7.4,52,0.00,,,0.00,WUHU216WMR968SP,2013-03-26 20:06:00,
2013-03-26 16:11:00,43.3,26.8,30.21,WSW,253,4.1,6.0,52,0.00,,,0.00,WUHU216WMR968SP,2013-03-26 20:11:00,
2013-03-26 16:16:00,43.0,26.6,30.21,West,280,4.6,8.1,52,0.00,,,0.00,WUHU216WMR968SP,2013-03-26 20:16:00,
2013-03-26 16:21:00,42.6,26.2,30.21,North,0,4.6,9.5,52,0.00,,,0.00,WUHU216WMR968SP,2013-03-26 20:21:00,
2013-03-26 16:26:00,43.0,26.6,30.21,West,274,4.6,9.5,52,0.00,,,0.00,WUHU216WMR968SP,2013-03-26 20:26:00,
2013-03-26 16:31:00,43.2,26.7,30.21,West,281,3.3,8.1,52,0.00,,,0.00,WUHU216WMR968SP,2013-03-26 20:31:00,
2013-03-26 16:36:00,42.3,25.9,30.21,West,278,5.4,9.5,52,0.00,,,0.00,WUHU216WMR968SP,2013-03-26 20:36:00,
2013-03-26 16:41:00,41.7,25.3,30.21,WNW,302,4.1,9.5,52,0.00,,,0.00,WUHU216WMR968SP,2013-03-26 20:41:00,
2013-03-26 16:47:00,41.2,24.4,30.21,NNW,344,4.1,8.7,51,0.00,,,0.00,WUHU216WMR968SP,2013-03-26 20:47:00,
2013-03-26 16:52:00,41.0,24.2,30.21,North,8,4.1,8.7,51,0.00,,,0.00,WUHU216WMR968SP,2013-03-26 20:52:00,
2013-03-26 16:57:00,41.2,24.4,30.21,WNW,291,4.6,8.7,51,0.00,,,0.00,WUHU216WMR968SP,2013-03-26 20:57:00,
2013-03-26 17:02:00,41.4,24.6,30.21,NW,325,3.3,7.4,51,0.00,,,0.00,WUHU216WMR968SP,2013-03-26 21:02:00,
2013-03-26 17:07:00,41.5,25.2,30.21,NE,39,0.0,6.0,52,0.00,,,0.00,WUHU216WMR968SP,2013-03-26 21:07:00,
2013-03-26 17:12:00,41.5,25.2,30.21,North,2,0.0,6.0,52,0.00,,,0.00,WUHU216WMR968SP,2013-03-26 21:12:00,
2013-03-26 17:17:00,41.5,25.2,30.21,NW,323,4.1,6.0,52,0.00,,,0.00,WUHU216WMR968SP,2013-03-26 21:17:00,
2013-03-26 17:22:00,41.4,25.1,30.21,WNW,301,5.4,6.0,52,0.00,,,0.00,WUHU216WMR968SP,2013-03-26 21:22:00,
2013-03-26 17:27:00,41.2,25.3,30.21,NW,316,4.1,7.4,53,0.00,,,0.00,WUHU216WMR968SP,2013-03-26 21:27:00,
2013-03-26 17:32:00,41.0,25.2,30.21,North,11,4.1,8.7,53,0.00,,,0.00,WUHU216WMR968SP,2013-03-26 21:32:00,
2013-03-26 17:37:00,40.8,25.0,30.21,WNW,299,0.0,8.7,53,0.00,,,0.00,WUHU216WMR968SP,2013-03-26 21:37:00,
2013-03-26 17:42:00,40.6,24.8,30.21,WNW,296,3.3,8.1,53,0.00,,,0.00,WUHU216WMR968SP,2013-03-26 21:42:00,
2013-03-26 17:47:00,40.6,24.8,30.21,NNW,328,0.0,8.1,53,0.00,,,0.00,WUHU216WMR968SP,2013-03-26 21:47:00,
2013-03-26 17:52:00,40.8,25.0,30.21,NNW,334,5.4,8.1,53,0.00,,,0.00,WUHU216WMR968SP,2013-03-26 21:52:00,
2013-03-26 17:57:00,41.0,25.2,30.21,WNW,282,0.0,8.1,53,0.00,,,0.00,WUHU216WMR968SP,2013-03-26 21:57:00,
2013-03-26 18:02:00,41.2,25.3,30.21,West,274,0.0,8.1,53,0.00,,,0.00,WUHU216WMR968SP,2013-03-26 22:02:00,
2013-03-26 18:07:00,41.4,25.5,30.21,WNW,292,3.3,8.1,53,0.00,,,0.00,WUHU216WMR968SP,2013-03-26 22:07:00,
2013-03-26 18:12:00,41.0,24.7,30.21,WNW,284,4.6,9.5,52,0.00,,,0.00,WUHU216WMR968SP,2013-03-26 22:12:00,
2013-03-26 18:17:00,40.6,24.3,30.21,NW,315,5.4,9.5,52,0.00,,,0.00,WUHU216WMR968SP,2013-03-26 22:17:00,
2013-03-26 18:22:00,40.5,24.2,30.24,WNW,291,5.4,9.5,52,0.00,,,0.00,WUHU216WMR968SP,2013-03-26 22:22:00,
2013-03-26 18:27:00,40.1,23.9,30.24,North,6,4.1,9.5,52,0.00,,,0.00,WUHU216WMR968SP,2013-03-26 22:27:00,
2013-03-26 18:32:00,39.9,23.7,30.24,NNW,345,6.0,8.7,52,0.00,,,0.00,WUHU216WMR968SP,2013-03-26 22:32:00,
2013-03-26 18:38:00,39.9,24.1,30.24,NW,308,6.0,8.7,53,0.00,,,0.00,WUHU216WMR968SP,2013-03-26 22:38:00,
2013-03-26 18:43:00,39.7,23.5,30.24,NNW,343,4.6,8.1,52,0.00,,,0.00,WUHU216WMR968SP,2013-03-26 22:43:00,
2013-03-26 18:48:00,39.7,24.0,30.24,North,0,0.0,6.0,53,0.00,,,0.00,WUHU216WMR968SP,2013-03-26 22:48:00,
2013-03-26 18:53:00,39.7,24.0,30.24,NW,326,0.0,5.4,53,0.00,,,0.00,WUHU216WMR968SP,2013-03-26 22:53:00,
2013-03-26 18:58:00,39.7,24.0,30.24,NW,321,4.1,5.4,53,0.00,,,0.00,WUHU216WMR968SP,2013-03-26 22:58:00,
2013-03-26 19:03:00,39.9,24.1,30.24,NW,305,4.6,8.1,53,0.00,,,0.00,WUHU216WMR968SP,2013-03-26 23:03:00,
2013-03-26 19:08:00,39.7,24.0,30.24,NW,321,3.3,8.1,53,0.00,,,0.00,WUHU216WMR968SP,2013-03-26 23:08:00,
2013-03-26 19:13:00,39.7,24.4,30.24,NNW,328,3.3,8.1,54,0.00,,,0.00,WUHU216WMR968SP,2013-03-26 23:13:00,
2013-03-26 19:18:00,39.6,24.3,30.24,NW,317,0.0,6.8,54,0.00,,,0.00,WUHU216WMR968SP,2013-03-26 23:18:00,
2013-03-26 19:23:00,39.4,24.1,30.24,NNW,344,3.3,6.0,54,0.00,,,0.00,WUHU216WMR968SP,2013-03-26 23:23:00,
2013-03-26 19:28:00,39.2,23.9,30.24,NNW,345,0.0,6.0,54,0.00,,,0.00,WUHU216WMR968SP,2013-03-26 23:28:00,
2013-03-26 19:33:00,39.2,23.9,30.24,NNW,331,0.0,4.6,54,0.00,,,0.00,WUHU216WMR968SP,2013-03-26 23:33:00,
2013-03-26 19:38:00,39.0,24.2,30.24,WNW,301,3.3,5.4,55,0.00,,,0.00,WUHU216WMR968SP,2013-03-26 23:38:00,
2013-03-26 19:43:00,38.8,24.0,30.24,WNW,302,0.0,5.4,55,0.00,,,0.00,WUHU216WMR968SP,2013-03-26 23:43:00,
2013-03-26 19:48:00,38.7,23.9,30.24,North,357,0.0,6.0,55,0.00,,,0.00,WUHU216WMR968SP,2013-03-26 23:48:00,
2013-03-26 19:53:00,38.5,23.7,30.24,WNW,288,3.3,8.1,55,0.00,,,0.00,WUHU216WMR968SP,2013-03-26 23:53:00,
2013-03-26 19:58:00,38.3,24.0,30.24,NW,313,4.1,8.1,56,0.00,,,0.00,WUHU216WMR968SP,2013-03-26 23:58:00,
2013-03-26 20:03:00,37.9,23.6,30.24,NW,316,0.0,5.4,56,0.00,,,0.00,WUHU216WMR968SP,2013-03-27 00:03:00,
2013-03-26 20:08:00,37.8,24.0,30.24,NNW,330,0.0,4.6,57,0.00,,,0.00,WUHU216WMR968SP,2013-03-27 00:08:00,
2013-03-26 20:13:00,37.6,23.8,30.24,NW,305,3.3,8.1,57,0.00,,,0.00,WUHU216WMR968SP,2013-03-27 00:13:00,
2013-03-26 20:18:00,37.4,23.6,30.24,NNW,340,3.3,8.1,57,0.00,,,0.00,WUHU216WMR968SP,2013-03-27 00:18:00,
2013-03-26 20:24:00,37.2,23.8,30.27,NNW,345,0.0,6.0,58,0.00,,,0.00,WUHU216WMR968SP,2013-03-27 00:24:00,
2013-03-26 20:29:00,37.0,23.6,30.27,North,353,0.0,6.0,58,0.00,,,0.00,WUHU216WMR968SP,2013-03-27 00:29:00,
2013-03-26 20:34:00,37.0,24.0,30.27,North,353,0.0,0.0,59,0.00,,,0.00,WUHU216WMR968SP,2013-03-27 00:34:00,
2013-03-26 20:39:00,37.0,24.0,30.27,North,0,0.0,0.0,59,0.00,,,0.00,WUHU216WMR968SP,2013-03-27 00:39:00,
2013-03-26 20:44:00,37.0,24.0,30.27,NW,324,0.0,4.6,59,0.00,,,0.00,WUHU216WMR968SP,2013-03-27 00:44:00,
2013-03-26 20:49:00,36.7,23.8,30.27,NW,323,0.0,4.6,59,0.00,,,0.00,WUHU216WMR968SP,2013-03-27 00:49:00,
2013-03-26 20:54:00,36.5,23.6,30.27,NW,320,0.0,4.1,59,0.00,,,0.00,WUHU216WMR968SP,2013-03-27 00:54:00,
2013-03-26 20:59:00,36.1,23.6,30.27,NW,321,0.0,4.1,60,0.00,,,0.00,WUHU216WMR968SP,2013-03-27 00:59:00,
2013-03-26 21:04:00,36.1,23.6,30.27,NNW,329,0.0,4.6,60,0.00,,,0.00,WUHU216WMR968SP,2013-03-27 01:04:00,
2013-03-26 21:09:00,35.8,23.7,30.27,NNW,329,0.0,4.6,61,0.00,,,0.00,WUHU216WMR968SP,2013-03-27 01:09:00,
2013-03-26 21:14:00,35.6,23.5,30.27,NNW,329,0.0,0.0,61,0.00,,,0.00,WUHU216WMR968SP,2013-03-27 01:14:00,
2013-03-26 21:19:00,35.6,23.9,30.27,NNW,342,0.0,0.0,62,0.00,,,0.00,WUHU216WMR968SP,2013-03-27 01:19:00,
2013-03-26 21:24:00,35.2,23.5,30.27,NNW,342,0.0,0.0,62,0.00,,,0.00,WUHU216WMR968SP,2013-03-27 01:24:00,
2013-03-26 21:29:00,35.1,23.8,30.27,NW,325,0.0,0.0,63,0.00,,,0.00,WUHU216WMR968SP,2013-03-27 01:29:00,
2013-03-26 21:34:00,34.9,23.6,30.27,West,276,0.0,0.0,63,0.00,,,0.00,WUHU216WMR968SP,2013-03-27 01:34:00,
2013-03-26 21:39:00,34.7,23.8,30.27,West,276,0.0,0.0,64,0.00,,,0.00,WUHU216WMR968SP,2013-03-27 01:39:00,
2013-03-26 21:44:00,34.5,24.0,30.27,West,276,0.0,0.0,65,0.00,,,0.00,WUHU216WMR968SP,2013-03-27 01:44:00,
2013-03-26 21:49:00,34.3,24.2,30.27,West,279,0.0,0.0,66,0.00,,,0.00,WUHU216WMR968SP,2013-03-27 01:49:00,
2013-03-26 21:54:00,34.3,24.5,30.27,West,279,0.0,0.0,67,0.00,,,0.00,WUHU216WMR968SP,2013-03-27 01:54:00,
2013-03-26 21:59:00,34.5,24.7,30.27,West,279,0.0,0.0,67,0.00,,,0.00,WUHU216WMR968SP,2013-03-27 01:59:00,
2013-03-26 22:04:00,35.1,25.7,30.27,WNW,290,0.0,0.0,68,0.00,,,0.00,WUHU216WMR968SP,2013-03-27 02:04:00,
2013-03-26 22:09:00,35.2,25.8,30.30,WNW,290,0.0,0.0,68,0.00,,,0.00,WUHU216WMR968SP,2013-03-27 02:09:00,
2013-03-26 22:14:00,35.2,25.8,30.30,WNW,290,0.0,0.0,68,0.00,,,0.00,WUHU216WMR968SP,2013-03-27 02:14:00,
2013-03-26 22:19:00,35.4,26.0,30.30,NW,324,0.0,0.0,68,0.00,,,0.00,WUHU216WMR968SP,2013-03-27 02:19:00,
2013-03-26 22:24:00,35.6,25.8,30.30,North,353,0.0,0.0,67,0.00,,,0.00,WUHU216WMR968SP,2013-03-27 02:24:00,
2013-03-26 22:29:00,35.6,25.8,30.30,NW,319,0.0,4.1,67,0.00,,,0.00,WUHU216WMR968SP,2013-03-27 02:29:00,
2013-03-26 22:34:00,35.6,25.8,30.30,NW,319,0.0,4.1,67,0.00,,,0.00,WUHU216WMR968SP,2013-03-27 02:34:00,
2013-03-26 22:39:00,35.6,25.8,30.30,NW,319,0.0,0.0,67,0.00,,,0.00,WUHU216WMR968SP,2013-03-27 02:39:00,
2013-03-26 22:44:00,35.6,25.8,30.30,NW,320,4.6,5.4,67,0.00,,,0.00,WUHU216WMR968SP,2013-03-27 02:44:00,
2013-03-26 22:49:00,35.8,26.0,30.30,NW,322,0.0,5.4,67,0.00,,,0.00,WUHU216WMR968SP,2013-03-27 02:49:00,
2013-03-26 22:54:00,35.6,25.8,30.30,NW,323,0.0,4.1,67,0.00,,,0.00,WUHU216WMR968SP,2013-03-27 02:54:00,
2013-03-26 22:59:00,35.6,25.8,30.30,NNW,334,0.0,8.7,67,0.00,,,0.00,WUHU216WMR968SP,2013-03-27 02:59:00,
2013-03-26 23:04:00,35.6,25.8,30.30,NNW,345,0.0,8.7,67,0.00,,,0.00,WUHU216WMR968SP,2013-03-27 03:04:00,
2013-03-26 23:09:00,35.6,25.4,30.30,NW,308,0.0,5.4,66,0.00,,,0.00,WUHU216WMR968SP,2013-03-27 03:09:00,
2013-03-26 23:14:00,35.8,25.6,30.30,North,353,0.0,5.4,66,0.00,,,0.00,WUHU216WMR968SP,2013-03-27 03:14:00,
2013-03-26 23:20:00,35.8,26.0,30.30,NNW,335,0.0,4.6,67,0.00,,,0.00,WUHU216WMR968SP,2013-03-27 03:20:00,
2013-03-26 23:25:00,36.1,26.3,30.30,North,349,0.0,4.6,67,0.00,,,0.00,WUHU216WMR968SP,2013-03-27 03:25:00,
2013-03-26 23:30:00,36.1,25.9,30.30,West,278,0.0,8.1,66,0.00,,,0.00,WUHU216WMR968SP,2013-03-27 03:30:00,
2013-03-26 23:35:00,36.3,26.1,30.30,North,7,0.0,8.1,66,0.00,,,0.00,WUHU216WMR968SP,2013-03-27 03:35:00,
2013-03-26 23:40:00,36.3,26.1,30.30,SW,216,0.0,6.0,66,0.00,,,0.00,WUHU216WMR968SP,2013-03-27 03:40:00,
2013-03-26 23:45:00,36.3,26.1,30.30,North,353,0.0,0.0,66,0.00,,,0.00,WUHU216WMR968SP,2013-03-27 03:45:00,
2013-03-26 23:50:00,36.3,26.1,30.30,NW,311,0.0,7.4,66,0.00,,,0.00,WUHU216WMR968SP,2013-03-27 03:50:00,
2013-03-26 23:55:00,36.5,25.9,30.30,North,357,0.0,7.4,65,0.00,,,0.00,WUHU216WMR968SP,2013-03-27 03:55:00,